Lukeville, Arizona
Current Conditions -  °F | °C
As of 4:55 PM on Friday 24 Oct 2014 (Local Time) from KGXF Reporting Station
Clear Clear  
Wind Chill: 95°   Ceiling: Unl
Heat Index: 95°   Visibility: 10mi
Dew Point: 43°   Wind: 0mph
Humidity: 16%   Direction: NA
Pressure: 29.93"   Gusts: NA
Location:  31.88°N, 112.82°W
Report Text: KGXF 242355Z 00000KT 10SM CLR 35/06 A2993 RMK SLP119 57011
Loading
Personal Weather Stations






























Interactive Weather Map
Tropical Storm Tracking
New forecast layout! Learn more

10-Day Weather Forecast

Advertisements
Track Severe Weather on mobile